createdAt,value
2018-04-01T00:03:00.286Z,65.10
2018-04-01T00:06:02.241Z,60.47
2018-04-01T00:09:04.130Z,55.90
2018-04-01T00:12:06.096Z,61.20
2018-04-01T00:15:08.111Z,57.20
2018-04-01T00:18:10.054Z,63.37
2018-04-01T00:21:11.974Z,61.30
2018-04-01T00:24:13.935Z,56.00
2018-04-01T00:27:15.816Z,62.77
2018-04-01T00:30:17.862Z,57.43
2018-04-01T00:33:19.909Z,63.10
2018-04-01T00:36:21.820Z,59.53
2018-04-01T00:39:25.009Z,59.17
2018-04-01T00:42:26.886Z,59.53
2018-04-01T00:45:28.825Z,62.20
2018-04-01T00:48:31.423Z,63.87
2018-04-01T00:51:33.446Z,66.27
2018-04-01T00:54:36.240Z,62.93
2018-04-01T00:57:38.176Z,67.60
2018-04-01T01:00:40.074Z,62.83
2018-04-01T01:03:42.000Z,62.60
2018-04-01T01:06:43.906Z,72.40
2018-04-01T01:09:45.852Z,68.20
2018-04-01T01:12:47.805Z,67.87
2018-04-01T01:15:49.679Z,69.00
2018-04-01T01:18:52.979Z,62.10
2018-04-01T01:21:54.885Z,64.27
2018-04-01T01:24:56.819Z,66.90
2018-04-01T01:27:58.701Z,72.30
2018-04-01T01:31:00.622Z,71.63
2018-04-01T01:34:02.582Z,68.60
2018-04-01T01:37:04.510Z,84.80
2018-04-01T01:40:06.467Z,74.43
2018-04-01T01:43:08.407Z,78.50
2018-04-01T01:46:10.326Z,72.60
2018-04-01T01:49:12.316Z,75.97
2018-04-01T01:52:14.264Z,85.43
2018-04-01T01:55:17.842Z,76.43
2018-04-01T01:58:19.797Z,74.00
2018-04-01T02:01:21.786Z,85.23
2018-04-01T02:04:23.645Z,82.33
2018-04-01T02:07:26.240Z,78.50
2018-04-01T02:10:28.131Z,72.77
2018-04-01T02:13:31.286Z,82.17
2018-04-01T02:16:33.231Z,80.30
2018-04-01T02:19:35.140Z,78.60
2018-04-01T02:22:40.178Z,77.73
2018-04-01T02:25:42.145Z,79.67
2018-04-01T02:28:44.087Z,75.33
2018-04-01T02:31:46.037Z,84.97
2018-04-01T02:34:47.986Z,84.40
2018-04-01T02:37:49.942Z,81.23
2018-04-01T02:40:51.852Z,92.47
2018-04-01T02:43:53.765Z,85.07
2018-04-01T02:46:55.654Z,83.10
2018-04-01T02:49:57.631Z,91.43
2018-04-01T02:53:00.616Z,91.63
2018-04-01T02:56:02.558Z,95.57
2018-04-01T02:59:04.611Z,104.23
2018-04-01T03:02:06.549Z,105.47
2018-04-01T03:05:08.436Z,106.20
2018-04-01T03:08:10.323Z,106.43
2018-04-01T03:11:12.228Z,111.73
2018-04-01T03:14:14.145Z,103.47
2018-04-01T03:17:16.076Z,95.03
2018-04-01T03:20:17.999Z,88.90
2018-04-01T03:23:19.993Z,90.53
2018-04-01T03:26:21.897Z,98.63
2018-04-01T03:29:23.856Z,93.63
2018-04-01T03:32:25.788Z,108.07
2018-04-01T03:35:27.737Z,101.30
2018-04-01T03:38:29.638Z,112.10
2018-04-01T03:41:31.577Z,109.53
2018-04-01T03:44:33.652Z,115.13
2018-04-01T03:47:35.683Z,100.57
2018-04-01T03:50:37.622Z,108.40
2018-04-01T03:53:39.588Z,112.20
2018-04-01T03:56:41.607Z,113.23
2018-04-01T03:59:43.562Z,120.17
2018-04-01T04:02:45.489Z,101.03
2018-04-01T04:05:47.433Z,115.60
2018-04-01T04:08:49.352Z,117.47
2018-04-01T04:11:51.313Z,106.00
2018-04-01T04:14:53.274Z,113.27
2018-04-01T04:17:55.148Z,113.03
2018-04-01T04:20:57.112Z,119.17
2018-04-01T04:23:59.165Z,113.33
2018-04-01T04:27:01.102Z,113.17
2018-04-01T04:30:02.995Z,126.67
2018-04-01T04:33:04.916Z,125.27
2018-04-01T04:36:06.798Z,118.33
2018-04-01T04:39:08.810Z,126.27
2018-04-01T04:42:10.872Z,113.90
2018-04-01T04:45:12.996Z,106.17
2018-04-01T04:48:14.889Z,113.80
2018-04-01T04:51:16.824Z,101.90
2018-04-01T04:54:18.760Z,96.47
2018-04-01T04:57:20.692Z,108.10
2018-04-01T05:00:22.572Z,99.27
2018-04-01T05:03:24.518Z,101.50
2018-04-01T05:06:26.467Z,88.00
2018-04-01T05:09:28.404Z,82.20
2018-04-01T05:12:30.322Z,76.03
2018-04-01T05:15:32.268Z,72.73
2018-04-01T05:18:34.248Z,74.30
2018-04-01T05:21:36.203Z,77.67
2018-04-01T05:24:38.148Z,76.33
2018-04-01T05:27:40.045Z,79.57
2018-04-01T05:30:41.994Z,75.17
2018-04-01T05:33:43.895Z,71.33
2018-04-01T05:36:45.847Z,77.00
2018-04-01T05:39:47.773Z,75.57
2018-04-01T05:42:49.700Z,73.90
2018-04-01T05:45:51.690Z,77.10
2018-04-01T05:48:53.633Z,79.20
2018-04-01T05:51:55.688Z,84.73
2018-04-01T05:54:57.576Z,81.77
2018-04-01T05:57:59.587Z,80.30
2018-04-01T06:01:01.513Z,74.10
2018-04-01T06:04:03.513Z,74.63
2018-04-01T06:07:05.432Z,74.70
2018-04-01T06:10:07.369Z,79.97
2018-04-01T06:13:09.329Z,66.13
2018-04-01T06:16:11.244Z,67.43
2018-04-01T06:19:13.225Z,65.00
2018-04-01T06:22:15.110Z,69.50
2018-04-01T06:25:17.130Z,63.27
2018-04-01T06:28:19.058Z,64.50
2018-04-01T06:31:20.975Z,64.07
2018-04-01T06:34:22.970Z,67.13
2018-04-01T06:37:24.919Z,67.17
2018-04-01T06:40:26.901Z,64.50
2018-04-01T06:43:28.779Z,61.03
2018-04-01T06:46:30.711Z,66.70
2018-04-01T06:49:32.757Z,65.93
2018-04-01T06:52:34.609Z,64.67
2018-04-01T06:55:36.578Z,60.90
2018-04-01T06:58:38.509Z,64.00
2018-04-01T07:01:40.443Z,57.80
2018-04-01T07:04:42.376Z,58.97
2018-04-01T07:07:44.315Z,63.90
2018-04-01T07:10:46.355Z,59.00
2018-04-01T07:13:48.261Z,61.60
2018-04-01T07:16:50.170Z,64.50
2018-04-01T07:19:52.085Z,55.07
2018-04-01T07:22:54.025Z,59.53
2018-04-01T07:25:55.971Z,60.43
2018-04-01T07:28:57.946Z,54.80
2018-04-01T07:31:59.996Z,59.30
2018-04-01T07:35:01.925Z,58.83
2018-04-01T07:38:03.856Z,55.07
2018-04-01T07:41:05.840Z,60.37
2018-04-01T07:44:08.944Z,61.50
2018-04-01T07:47:10.974Z,56.43
2018-04-01T07:50:12.910Z,56.63
2018-04-01T07:53:14.868Z,57.33
2018-04-01T07:56:16.814Z,54.00
2018-04-01T07:59:18.872Z,49.33
2018-04-01T08:02:20.849Z,49.00
2018-04-01T08:05:22.872Z,51.60
2018-04-01T08:08:24.765Z,51.67
2018-04-01T08:11:26.771Z,53.07
2018-04-01T08:14:28.721Z,49.40
2018-04-01T08:17:30.673Z,50.67
2018-04-01T08:20:32.626Z,59.40
2018-04-01T08:23:34.549Z,54.40
2018-04-01T08:26:36.496Z,49.50
2018-04-01T08:29:38.419Z,41.40
2018-04-01T08:32:40.346Z,44.83
2018-04-01T08:35:42.257Z,43.67
2018-04-01T08:38:44.208Z,37.40
2018-04-01T08:41:46.097Z,41.40
2018-04-01T08:44:48.012Z,37.60
2018-04-01T08:47:50.057Z,42.10
2018-04-01T08:50:51.963Z,39.20
2018-04-01T08:53:53.959Z,46.90
2018-04-01T08:56:56.005Z,43.17
2018-04-01T08:59:58.056Z,41.97
2018-04-01T09:02:59.981Z,42.33
2018-04-01T09:06:01.962Z,42.93
2018-04-01T09:09:03.896Z,39.97
2018-04-01T09:12:05.855Z,40.07
2018-04-01T09:15:08.310Z,43.17
2018-04-01T09:18:10.268Z,40.77
2018-04-01T09:21:12.182Z,40.43
2018-04-01T09:24:14.106Z,44.07
2018-04-01T09:27:17.016Z,38.60
2018-04-01T09:30:18.950Z,40.27
2018-04-01T09:33:20.840Z,45.07
2018-04-01T09:36:22.791Z,42.47
2018-04-01T09:39:24.698Z,44.90
2018-04-01T09:42:26.641Z,41.13
2018-04-01T09:45:28.657Z,44.57
2018-04-01T09:48:30.772Z,44.37
2018-04-01T09:51:32.708Z,40.13
2018-04-01T09:54:34.622Z,43.00
2018-04-01T09:57:36.578Z,44.47
2018-04-01T10:00:56.576Z,44.43
2018-04-01T10:03:59.139Z,44.00
2018-04-01T10:07:01.612Z,35.63
2018-04-01T10:10:04.151Z,38.83
2018-04-01T10:13:06.672Z,37.43
2018-04-01T10:16:09.312Z,35.23
2018-04-01T10:19:11.852Z,37.30
2018-04-01T10:22:14.413Z,34.10
2018-04-01T10:25:16.889Z,42.50
2018-04-01T10:28:19.407Z,38.70
2018-04-01T10:31:21.865Z,38.07
2018-04-01T10:34:24.379Z,38.10
2018-04-01T10:37:27.000Z,35.67
2018-04-01T10:40:29.549Z,37.67
2018-04-01T10:43:32.143Z,43.47
2018-04-01T10:46:34.630Z,41.80
2018-04-01T10:49:37.142Z,40.30
2018-04-01T10:52:39.817Z,39.17
2018-04-01T10:55:41.727Z,43.47
2018-04-01T10:58:43.682Z,38.00
2018-04-01T11:01:45.682Z,41.70
2018-04-01T11:04:47.671Z,44.20
2018-04-01T11:07:49.647Z,40.93
2018-04-01T11:10:51.584Z,36.60
2018-04-01T11:13:53.576Z,31.57
2018-04-01T11:16:55.528Z,31.37
2018-04-01T11:19:57.453Z,30.07
2018-04-01T11:23:00.048Z,32.50
2018-04-01T11:26:02.048Z,34.00
2018-04-01T11:29:04.411Z,31.70
2018-04-01T11:32:06.384Z,29.00
2018-04-01T11:35:08.287Z,31.70
2018-04-01T11:38:10.394Z,27.57
2018-04-01T11:41:12.384Z,27.27
2018-04-01T11:44:14.393Z,28.13
2018-04-01T11:47:16.354Z,30.20
2018-04-01T11:50:18.297Z,28.87
2018-04-01T11:53:20.243Z,30.10
2018-04-01T11:56:22.267Z,32.30
2018-04-01T11:59:24.237Z,36.93
2018-04-01T12:02:26.289Z,45.00
2018-04-01T12:05:28.239Z,45.53
2018-04-01T12:08:30.187Z,43.43
2018-04-01T12:11:32.241Z,45.70
2018-04-01T12:14:34.194Z,53.43
2018-04-01T12:17:36.137Z,59.97
2018-04-01T12:20:38.198Z,40.50
2018-04-01T12:23:40.088Z,41.17
2018-04-01T12:26:42.090Z,47.63
2018-04-01T12:29:44.040Z,39.40
2018-04-01T12:32:46.033Z,38.30
2018-04-01T12:35:48.039Z,35.40
2018-04-01T12:38:50.894Z,31.37
2018-04-01T12:41:52.857Z,30.63
2018-04-01T12:44:54.783Z,30.43
2018-04-01T12:47:56.769Z,31.50
2018-04-01T12:50:58.714Z,33.33
2018-04-01T12:54:00.650Z,34.47
2018-04-01T12:57:02.593Z,34.30
2018-04-01T13:00:04.507Z,30.43
2018-04-01T13:03:06.443Z,28.83
2018-04-01T13:06:08.414Z,24.13
2018-04-01T13:09:10.340Z,29.40
2018-04-01T13:12:12.344Z,21.27
2018-04-01T13:15:14.279Z,21.53
2018-04-01T13:18:16.255Z,19.60
2018-04-01T13:21:19.901Z,21.47
2018-04-01T13:24:21.838Z,23.37
2018-04-01T13:27:23.770Z,23.70
2018-04-01T13:30:25.720Z,23.63
2018-04-01T13:33:27.620Z,23.23
2018-04-01T13:36:29.585Z,25.17
2018-04-01T13:39:31.545Z,26.97
2018-04-01T13:42:33.486Z,30.07
2018-04-01T13:45:35.457Z,30.50
2018-04-01T13:48:37.380Z,28.07
2018-04-01T13:51:39.389Z,29.07
2018-04-01T13:54:41.310Z,28.57
2018-04-01T13:57:43.301Z,28.63
2018-04-01T14:00:45.284Z,32.20
2018-04-01T14:03:47.245Z,30.60
2018-04-01T14:06:49.166Z,29.53
2018-04-01T14:09:51.144Z,31.47
2018-04-01T14:12:53.151Z,31.53
2018-04-01T14:15:55.215Z,29.27
2018-04-01T14:18:57.271Z,30.77
2018-04-01T14:21:59.223Z,27.67
2018-04-01T14:25:01.165Z,30.30
2018-04-01T14:28:03.244Z,27.40
2018-04-01T14:31:05.210Z,31.90
2018-04-01T14:34:07.175Z,28.40
2018-04-01T14:37:09.171Z,27.80
2018-04-01T14:40:11.182Z,29.20
2018-04-01T14:43:13.147Z,26.83
2018-04-01T14:46:15.051Z,28.33
2018-04-01T14:49:17.008Z,26.50
2018-04-01T14:52:18.941Z,28.03
2018-04-01T14:55:20.915Z,24.20
2018-04-01T14:58:22.870Z,24.13
2018-04-01T15:01:24.880Z,25.53
2018-04-01T15:04:26.800Z,26.37
2018-04-01T15:07:28.787Z,24.50
2018-04-01T15:10:30.675Z,26.47
2018-04-01T15:13:32.755Z,26.63
2018-04-01T15:16:34.672Z,25.20
2018-04-01T15:19:36.669Z,24.70
2018-04-01T15:22:38.635Z,29.00
2018-04-01T15:25:40.659Z,26.70
2018-04-01T15:28:42.609Z,26.33
2018-04-01T15:31:44.585Z,23.10
2018-04-01T15:34:46.521Z,28.83
2018-04-01T15:37:48.509Z,24.47
2018-04-01T15:40:50.486Z,32.37
2018-04-01T15:43:52.403Z,25.17
2018-04-01T15:46:54.402Z,29.93
2018-04-01T15:49:56.374Z,30.93
2018-04-01T15:52:58.392Z,28.27
2018-04-01T15:56:00.343Z,26.50
2018-04-01T15:59:02.226Z,27.53
2018-04-01T16:02:04.144Z,27.30
2018-04-01T16:05:06.029Z,32.23
2018-04-01T16:08:07.980Z,26.50
2018-04-01T16:11:09.920Z,36.17
2018-04-01T16:14:11.875Z,27.73
2018-04-01T16:17:13.787Z,29.97
2018-04-01T16:20:15.748Z,29.30
2018-04-01T16:23:17.886Z,26.90
2018-04-01T16:26:19.840Z,30.13
2018-04-01T16:29:21.777Z,32.23
2018-04-01T16:32:23.831Z,28.00
2018-04-01T16:35:25.787Z,31.20
2018-04-01T16:38:27.761Z,30.63
2018-04-01T16:41:29.707Z,28.83
2018-04-01T16:44:31.732Z,30.80
2018-04-01T16:47:33.666Z,29.73
2018-04-01T16:50:35.606Z,30.13
2018-04-01T16:53:37.548Z,29.40
2018-04-01T16:56:39.455Z,28.97
2018-04-01T16:59:41.521Z,33.80
2018-04-01T17:02:43.433Z,28.70
2018-04-01T17:05:45.399Z,30.97
2018-04-01T17:08:47.356Z,30.00
2018-04-01T17:11:49.283Z,28.97
2018-04-01T17:14:51.323Z,29.40
2018-04-01T17:17:53.372Z,30.57
2018-04-01T17:20:55.422Z,30.83
2018-04-01T17:23:57.358Z,28.23
2018-04-01T17:26:59.251Z,30.63
2018-04-01T17:30:01.287Z,30.90
2018-04-01T17:33:03.243Z,30.80
2018-04-01T17:36:05.172Z,33.33
2018-04-01T17:39:07.223Z,35.80
2018-04-01T17:42:09.202Z,36.17
2018-04-01T17:45:11.113Z,34.70
2018-04-01T17:48:13.047Z,37.53
2018-04-01T17:51:14.980Z,36.83
2018-04-01T17:54:16.911Z,33.13
2018-04-01T17:57:18.913Z,33.13
2018-04-01T18:00:20.861Z,43.80
2018-04-01T18:03:22.906Z,39.73
2018-04-01T18:06:24.802Z,36.63
2018-04-01T18:09:26.809Z,33.57
2018-04-01T18:12:28.883Z,38.03
2018-04-01T18:15:30.794Z,34.97
2018-04-01T18:18:32.717Z,35.93
2018-04-01T18:21:34.643Z,37.63
2018-04-01T18:24:36.859Z,36.50
2018-04-01T18:27:38.911Z,35.43
2018-04-01T18:30:40.845Z,32.77
2018-04-01T18:33:42.788Z,36.80
2018-04-01T18:36:44.757Z,33.10
2018-04-01T18:39:46.684Z,37.27
2018-04-01T18:42:48.769Z,45.30
2018-04-01T18:45:50.714Z,45.90
2018-04-01T18:48:52.693Z,45.97
2018-04-01T18:51:54.662Z,44.63
2018-04-01T18:54:56.652Z,43.97
2018-04-01T18:57:58.702Z,45.97
2018-04-01T19:01:00.661Z,44.03
2018-04-01T19:04:02.716Z,42.33
2018-04-01T19:07:04.663Z,50.87
2018-04-01T19:10:06.703Z,50.67
2018-04-01T19:13:08.658Z,54.20
2018-04-01T19:16:11.223Z,52.40
2018-04-01T19:22:23.567Z,47.70
2018-04-01T19:25:26.058Z,44.23
2018-04-01T19:28:28.575Z,47.73
2018-04-01T19:31:31.165Z,51.60
2018-04-01T19:34:33.669Z,46.10
2018-04-01T19:37:36.118Z,48.33
2018-04-01T19:40:38.675Z,52.93
2018-04-01T19:43:41.197Z,54.77
2018-04-01T19:46:43.767Z,54.13
2018-04-01T19:49:46.221Z,58.50
2018-04-01T19:52:48.751Z,61.60
2018-04-01T19:55:51.253Z,65.37
2018-04-01T19:58:53.848Z,58.00
2018-04-01T20:01:56.310Z,64.37
2018-04-01T20:04:58.783Z,67.87
2018-04-01T20:08:01.448Z,71.43
2018-04-01T20:11:03.998Z,67.73
2018-04-01T20:14:06.825Z,73.07
2018-04-01T20:17:09.852Z,70.17
2018-04-01T20:20:12.333Z,63.30
2018-04-01T20:23:14.813Z,67.27
2018-04-01T20:26:17.345Z,59.87
2018-04-01T20:29:19.935Z,67.50
2018-04-01T20:32:22.505Z,57.20
2018-04-01T20:35:25.055Z,66.83
2018-04-01T20:38:27.508Z,70.47
2018-04-01T20:41:31.419Z,60.03
2018-04-01T20:44:33.942Z,61.77
2018-04-01T20:47:36.465Z,55.77
2018-04-01T20:50:39.058Z,61.90
2018-04-01T20:53:41.615Z,54.83
2018-04-01T20:56:44.200Z,54.57
2018-04-01T20:59:46.696Z,54.00
2018-04-01T21:02:49.314Z,53.87
2018-04-01T21:05:51.805Z,58.20
2018-04-01T21:08:54.246Z,61.90
2018-04-01T21:11:56.748Z,76.10
2018-04-01T21:14:59.269Z,68.33
2018-04-01T21:18:01.796Z,79.20
2018-04-01T21:21:04.381Z,87.60
2018-04-01T21:24:06.905Z,90.13
2018-04-01T21:27:09.396Z,102.23
2018-04-01T21:30:11.897Z,103.37
2018-04-01T21:33:14.365Z,97.87
2018-04-01T21:36:16.874Z,94.10
2018-04-01T21:39:19.375Z,82.07
2018-04-01T21:42:21.884Z,76.93
2018-04-01T21:45:24.430Z,72.20
2018-04-01T21:48:26.930Z,69.87
2018-04-01T21:51:29.521Z,75.37
2018-04-01T21:54:32.055Z,84.77
2018-04-01T21:57:34.625Z,98.50
2018-04-01T22:00:37.182Z,88.47
2018-04-01T22:03:39.666Z,89.20
2018-04-01T22:06:42.170Z,78.57
2018-04-01T22:09:44.667Z,83.83
2018-04-01T22:12:47.149Z,87.70
2018-04-01T22:15:49.694Z,102.10
2018-04-01T22:18:52.175Z,88.90
2018-04-01T22:21:54.690Z,89.40
2018-04-01T22:24:57.191Z,87.27
2018-04-01T22:27:59.670Z,96.60
2018-04-01T22:31:02.220Z,88.97
2018-04-01T22:34:04.711Z,96.73
2018-04-01T22:37:07.152Z,105.10
2018-04-01T22:40:09.646Z,91.10
2018-04-01T22:43:12.146Z,85.80
2018-04-01T22:46:14.597Z,95.40
2018-04-01T22:49:17.083Z,102.53
2018-04-01T22:52:19.530Z,104.90
2018-04-01T22:55:22.087Z,113.53
2018-04-01T22:58:24.568Z,109.33
2018-04-01T23:01:27.111Z,110.23
2018-04-01T23:04:29.599Z,107.70
2018-04-01T23:07:32.127Z,113.17
2018-04-01T23:10:34.610Z,114.47
2018-04-01T23:13:37.152Z,110.10
2018-04-01T23:16:39.591Z,102.77
2018-04-01T23:19:42.052Z,99.23
2018-04-01T23:22:44.569Z,100.67
2018-04-01T23:25:47.096Z,102.80
2018-04-01T23:28:49.587Z,99.10
2018-04-01T23:31:52.089Z,101.03
2018-04-01T23:34:54.580Z,104.63
2018-04-01T23:37:57.143Z,109.73
2018-04-01T23:40:59.705Z,104.40
2018-04-01T23:44:02.161Z,105.50
2018-04-01T23:47:04.727Z,105.83
2018-04-01T23:50:07.235Z,103.43
2018-04-01T23:53:09.718Z,115.50
2018-04-01T23:56:12.175Z,111.20
2018-04-01T23:59:14.678Z,106.87
